Houche-Al-Oumara, Lebanon
Current Conditions -  °F | °C
As of 5:00 AM on Sunday 23 Nov 2014 (Local Time) from OLBA Reporting Station
Light Rain Light Rain  
Wind Chill: 61°   Ceiling: 7000
Heat Index: 61°   Visibility: 5mi
Dew Point: 48°   Wind: 5mph
Humidity: 63%   Direction: 80°E
Pressure: 30"   Gusts: NA
Location:  33.82°N, 35.85°E
Report Text: OLBA 230200Z 08004KT 8000 -RA FEW026 BKN070 16/09 Q1016 NOSIG
Loading
Personal Weather Stations






























Interactive Weather Map New forecast layout! Learn more

10-Day Weather Forecast

Advertisements
Track Severe Weather on mobile